createdAt,value
2022-10-19T00:01:29.262Z,2.29
2022-10-19T00:04:32.191Z,2.34
2022-10-19T00:07:36.395Z,2.46
2022-10-19T00:10:41.399Z,2.57
2022-10-19T00:33:40.997Z,4.42
2022-10-19T00:36:44.168Z,4.91
2022-10-19T00:39:47.514Z,5.40
2022-10-19T00:42:56.501Z,5.73
2022-10-19T00:46:00.276Z,6.22
2022-10-19T00:49:10.739Z,6.74
2022-10-19T00:52:20.188Z,7.17
2022-10-19T00:55:24.406Z,7.37
2022-10-19T00:58:28.601Z,7.57
2022-10-19T01:01:33.546Z,7.69
2022-10-19T01:04:39.897Z,7.73
2022-10-19T01:07:43.011Z,7.90
2022-10-19T01:11:22.608Z,8.27
2022-10-19T01:14:59.680Z,8.44
2022-10-19T01:18:11.917Z,8.76
2022-10-19T01:21:19.905Z,9.03
2022-10-19T01:24:40.657Z,9.66
2022-10-19T01:28:02.456Z,10.25
2022-10-19T01:31:42.662Z,10.62
2022-10-19T01:34:53.671Z,10.62
2022-10-19T01:38:08.294Z,10.29
2022-10-19T01:41:19.300Z,10.24
2022-10-19T01:44:56.684Z,10.55
2022-10-19T01:48:18.185Z,11.08
2022-10-19T01:51:28.633Z,11.45
2022-10-19T01:54:36.919Z,11.32
2022-10-19T01:57:47.009Z,11.81
2022-10-19T02:00:53.678Z,11.89
2022-10-19T02:03:59.260Z,11.34
2022-10-19T02:07:04.406Z,11.74
2022-10-19T02:10:09.097Z,12.19
2022-10-19T02:13:15.428Z,12.04
2022-10-19T02:16:27.272Z,12.21
2022-10-19T02:19:30.266Z,12.15
2022-10-19T02:22:33.900Z,12.59
2022-10-19T02:25:37.551Z,12.84
2022-10-19T02:28:41.663Z,13.95
2022-10-19T02:31:45.966Z,15.03
2022-10-19T02:34:49.290Z,15.48
2022-10-19T02:37:52.346Z,16.20
2022-10-19T02:41:06.220Z,16.61
2022-10-19T02:44:17.626Z,16.53
2022-10-19T02:47:51.848Z,17.24
2022-10-19T02:50:55.785Z,17.26
2022-10-19T02:54:02.588Z,17.07
2022-10-19T02:57:23.834Z,18.08
2022-10-19T03:00:27.268Z,18.15
2022-10-19T03:03:30.316Z,18.08
2022-10-19T03:06:33.554Z,17.77
2022-10-19T03:09:36.618Z,19.09
2022-10-19T03:12:40.305Z,19.86
2022-10-19T03:15:43.256Z,19.30
2022-10-19T03:18:49.505Z,19.99
2022-10-19T03:21:52.563Z,16.76
2022-10-19T03:24:56.207Z,16.19
2022-10-19T03:27:59.220Z,18.08
2022-10-19T03:31:02.912Z,19.18
2022-10-19T03:34:05.959Z,17.99
2022-10-19T03:37:09.640Z,19.23
2022-10-19T03:40:12.567Z,16.69
2022-10-19T03:43:15.469Z,14.01
2022-10-19T03:46:18.798Z,12.97
2022-10-19T03:49:22.535Z,11.77
2022-10-19T03:52:26.222Z,11.59
2022-10-19T03:55:30.781Z,11.69
2022-10-19T03:58:36.391Z,11.69
2022-10-19T04:01:43.050Z,11.60
2022-10-19T04:04:46.567Z,11.49
2022-10-19T04:07:50.019Z,11.15
2022-10-19T04:10:53.589Z,10.99
2022-10-19T04:13:58.458Z,11.06
2022-10-19T04:17:03.084Z,11.13
2022-10-19T04:20:07.617Z,10.88
2022-10-19T04:23:10.574Z,10.82
2022-10-19T04:26:13.667Z,10.77
2022-10-19T04:29:19.426Z,10.90
2022-10-19T04:32:22.738Z,10.96
2022-10-19T04:35:25.667Z,10.77
2022-10-19T04:38:30.135Z,10.68
2022-10-19T04:41:33.866Z,10.85
2022-10-19T04:44:36.990Z,10.86
2022-10-19T04:47:40.696Z,10.88
2022-10-19T04:50:43.637Z,10.99
2022-10-19T04:53:59.775Z,11.24
2022-10-19T04:57:03.420Z,11.39
2022-10-19T05:00:07.174Z,11.50
2022-10-19T05:03:10.921Z,11.59
2022-10-19T05:06:15.341Z,11.64
2022-10-19T05:09:18.625Z,11.62
2022-10-19T05:12:21.592Z,11.96
2022-10-19T05:15:24.532Z,11.90
2022-10-19T05:18:28.069Z,12.02
2022-10-19T05:21:32.223Z,12.14
2022-10-19T05:24:35.916Z,12.46
2022-10-19T05:27:39.654Z,12.66
2022-10-19T05:30:45.453Z,13.50
2022-10-19T05:33:52.729Z,19.34
2022-10-19T05:36:57.191Z,18.32
2022-10-19T05:40:00.863Z,14.56
2022-10-19T05:43:04.402Z,13.08
2022-10-19T05:46:10.849Z,12.83
2022-10-19T05:49:16.369Z,12.85
2022-10-19T05:52:19.602Z,13.96
2022-10-19T05:55:23.578Z,16.54
2022-10-19T05:58:26.611Z,16.06
2022-10-19T06:01:30.841Z,17.11
2022-10-19T06:04:34.951Z,20.36
2022-10-19T06:07:39.020Z,22.60
2022-10-19T06:10:43.311Z,18.08
2022-10-19T06:13:49.987Z,16.67
2022-10-19T06:16:53.232Z,17.04
2022-10-19T06:19:56.269Z,18.89
2022-10-19T06:22:59.883Z,24.24
2022-10-19T06:26:06.151Z,24.58
2022-10-19T06:29:10.482Z,24.04
2022-10-19T06:32:14.575Z,23.32
2022-10-19T06:35:18.876Z,22.45
2022-10-19T06:38:23.199Z,22.28
2022-10-19T06:41:27.140Z,20.04
2022-10-19T06:44:30.898Z,17.69
2022-10-19T06:47:35.727Z,18.97
2022-10-19T06:50:39.306Z,17.67
2022-10-19T06:53:42.948Z,21.35
2022-10-19T06:56:46.548Z,24.55
2022-10-19T06:59:52.817Z,27.33
2022-10-19T07:02:59.360Z,26.43
2022-10-19T07:06:08.084Z,25.80
2022-10-19T07:09:12.228Z,23.45
2022-10-19T07:12:15.816Z,23.77
2022-10-19T07:15:19.831Z,24.95
2022-10-19T07:18:23.490Z,24.14
2022-10-19T07:21:27.222Z,20.34
2022-10-19T07:24:31.027Z,21.52
2022-10-19T07:27:37.948Z,21.97
2022-10-19T07:30:41.731Z,21.18
2022-10-19T07:33:46.258Z,21.94
2022-10-19T07:36:49.953Z,18.96
2022-10-19T07:39:53.990Z,19.35
2022-10-19T07:42:57.595Z,16.30
2022-10-19T07:46:13.665Z,14.94
2022-10-19T07:49:19.505Z,15.23
2022-10-19T07:52:23.467Z,14.91
2022-10-19T07:55:27.147Z,14.13
2022-10-19T07:58:31.244Z,13.56
2022-10-19T08:01:39.112Z,13.57
2022-10-19T08:04:59.515Z,13.44
2022-10-19T08:08:05.321Z,13.06
2022-10-19T08:11:20.916Z,12.58
2022-10-19T08:14:24.562Z,14.94
2022-10-19T08:17:28.498Z,17.53
2022-10-19T08:20:32.146Z,19.66
2022-10-19T08:23:36.124Z,21.34
2022-10-19T08:26:40.831Z,21.86
2022-10-19T08:29:44.908Z,21.21
2022-10-19T08:32:48.303Z,21.66
2022-10-19T08:35:54.405Z,21.63
2022-10-19T08:38:58.719Z,21.19
2022-10-19T08:42:03.962Z,20.40
2022-10-19T08:45:49.566Z,21.01
2022-10-19T08:48:53.397Z,20.15
2022-10-19T08:52:11.757Z,20.46
2022-10-19T08:55:20.758Z,19.15
2022-10-19T08:58:53.635Z,18.00
2022-10-19T09:02:18.598Z,17.09
2022-10-19T09:05:58.358Z,14.61
2022-10-19T09:09:02.503Z,13.21
2022-10-19T09:12:08.205Z,12.70
2022-10-19T09:15:19.068Z,12.28
2022-10-19T09:18:31.302Z,12.00
2022-10-19T09:21:47.601Z,11.74
2022-10-19T09:25:01.389Z,11.47
2022-10-19T09:28:18.949Z,11.17
2022-10-19T09:31:45.074Z,10.81
2022-10-19T09:34:52.914Z,10.46
2022-10-19T09:37:57.768Z,10.38
2022-10-19T09:41:21.749Z,10.26
2022-10-19T09:44:26.242Z,10.04
2022-10-19T09:47:39.672Z,9.82
2022-10-19T09:51:00.638Z,9.66
2022-10-19T09:54:05.162Z,9.45
2022-10-19T09:57:22.540Z,9.40
2022-10-19T10:00:32.942Z,9.31
2022-10-19T10:11:33.979Z,8.97
2022-10-19T10:14:40.353Z,8.90
2022-10-19T10:17:48.232Z,8.77
2022-10-19T10:21:06.072Z,8.67
2022-10-19T10:24:13.933Z,8.65
2022-10-19T10:27:37.704Z,8.50
2022-10-19T10:30:42.301Z,8.38
2022-10-19T10:34:10.969Z,8.36
2022-10-19T10:37:33.365Z,8.37
2022-10-19T10:40:38.851Z,8.30
2022-10-19T10:44:07.368Z,8.28
2022-10-19T10:47:15.772Z,8.22
2022-10-19T10:50:35.657Z,8.18
2022-10-19T10:53:43.830Z,8.12
2022-10-19T10:57:12.641Z,8.07
2022-10-19T11:00:20.497Z,8.00
2022-10-19T11:03:27.163Z,7.89
2022-10-19T11:06:32.112Z,7.80
2022-10-19T11:09:43.970Z,7.75
2022-10-19T11:12:54.582Z,7.66
2022-10-19T11:16:13.126Z,7.56
2022-10-19T11:19:40.007Z,7.50
2022-10-19T11:23:08.754Z,7.47
2022-10-19T11:26:17.295Z,7.42
2022-10-19T11:29:53.040Z,7.39
2022-10-19T11:33:16.134Z,7.33
2022-10-19T11:36:29.412Z,7.19
2022-10-19T11:39:33.168Z,7.06
2022-10-19T11:46:13.256Z,7.05
2022-10-19T11:49:24.900Z,6.90
2022-10-19T11:52:51.835Z,6.85
2022-10-19T11:56:07.822Z,6.82
2022-10-19T11:59:18.512Z,6.72
2022-10-19T12:02:34.817Z,6.68
2022-10-19T12:06:03.756Z,6.63
2022-10-19T12:09:13.205Z,6.57
2022-10-19T12:12:21.783Z,6.50
2022-10-19T12:15:33.399Z,6.47
2022-10-19T12:18:42.593Z,6.33
2022-10-19T12:21:46.927Z,6.29
2022-10-19T12:24:51.679Z,6.28
2022-10-19T12:27:54.920Z,6.26
2022-10-19T12:31:01.902Z,6.25
2022-10-19T12:34:10.814Z,6.23
2022-10-19T12:37:43.139Z,6.25
2022-10-19T12:41:02.659Z,6.23
2022-10-19T12:44:22.004Z,6.25
2022-10-19T12:47:25.945Z,6.19
2022-10-19T12:51:06.037Z,6.19
2022-10-19T12:54:11.274Z,6.15
2022-10-19T12:57:29.174Z,6.18
2022-10-19T13:00:38.190Z,6.13
2022-10-19T13:03:43.847Z,6.12
2022-10-19T13:07:02.189Z,6.11
2022-10-19T13:10:09.628Z,6.12
2022-10-19T13:13:51.684Z,6.09
2022-10-19T13:17:03.524Z,6.06
2022-10-19T13:20:15.947Z,6.01
2022-10-19T13:23:31.476Z,5.98
2022-10-19T13:26:36.098Z,5.95
2022-10-19T13:29:41.788Z,5.90
2022-10-19T13:32:46.180Z,5.87
2022-10-19T13:35:50.426Z,5.82
2022-10-19T13:39:00.010Z,5.82
2022-10-19T13:42:04.080Z,5.81
2022-10-19T13:45:07.773Z,5.79
2022-10-19T13:48:29.437Z,5.77
2022-10-19T13:51:47.408Z,5.74
2022-10-19T13:55:16.092Z,5.73
2022-10-19T13:58:22.201Z,5.70
2022-10-19T14:01:50.307Z,5.68
2022-10-19T14:05:23.995Z,5.68
2022-10-19T14:08:58.511Z,5.67
2022-10-19T14:12:22.948Z,5.68
2022-10-19T14:15:31.098Z,5.62
2022-10-19T14:18:36.359Z,5.61
2022-10-19T14:21:39.667Z,5.63
2022-10-19T14:24:42.633Z,5.64
2022-10-19T14:27:55.264Z,5.67
2022-10-19T14:31:05.915Z,5.68
2022-10-19T14:34:10.336Z,5.64
2022-10-19T14:37:19.817Z,5.62
2022-10-19T14:40:33.026Z,5.58
2022-10-19T14:43:36.781Z,5.54
2022-10-19T14:46:40.707Z,5.54
2022-10-19T14:49:43.864Z,5.54
2022-10-19T14:52:49.918Z,5.56
2022-10-19T14:55:56.591Z,5.50
2022-10-19T14:59:26.665Z,5.52
2022-10-19T15:02:46.694Z,5.47
2022-10-19T15:05:56.460Z,5.43
2022-10-19T15:09:12.108Z,5.42
2022-10-19T15:12:34.947Z,5.38
2022-10-19T15:15:42.740Z,5.41
2022-10-19T15:18:49.673Z,5.40
2022-10-19T15:22:15.215Z,5.39
2022-10-19T15:25:38.076Z,5.37
2022-10-19T15:28:41.940Z,5.39
2022-10-19T15:31:45.516Z,5.38
2022-10-19T15:34:49.420Z,5.32
2022-10-19T15:38:16.342Z,5.30
2022-10-19T15:41:37.872Z,5.18
2022-10-19T15:44:45.102Z,5.06
2022-10-19T15:48:11.579Z,5.01
2022-10-19T15:51:37.299Z,4.93
2022-10-19T15:54:40.946Z,4.89
2022-10-19T15:57:45.109Z,4.91
2022-10-19T16:00:48.875Z,4.93
2022-10-19T16:03:52.621Z,4.87
2022-10-19T16:06:56.286Z,4.83
2022-10-19T16:10:00.429Z,4.79
2022-10-19T16:13:04.237Z,4.74
2022-10-19T16:16:11.664Z,4.72
2022-10-19T16:19:15.646Z,4.72
2022-10-19T16:22:19.410Z,4.83
2022-10-19T16:25:23.184Z,4.85
2022-10-19T16:28:26.755Z,4.89
2022-10-19T16:31:32.304Z,4.95
2022-10-19T16:34:36.402Z,4.93
2022-10-19T16:37:39.958Z,5.00
2022-10-19T16:40:43.682Z,4.99
2022-10-19T16:43:49.286Z,4.96
2022-10-19T16:46:52.545Z,4.96
2022-10-19T16:50:00.703Z,4.89
2022-10-19T16:53:11.245Z,4.72
2022-10-19T16:56:15.268Z,4.62
2022-10-19T16:59:19.486Z,4.60
2022-10-19T17:02:24.159Z,4.57
2022-10-19T17:05:27.822Z,4.45
2022-10-19T17:08:36.963Z,4.36
2022-10-19T17:11:47.441Z,4.38
2022-10-19T17:14:51.765Z,4.32
2022-10-19T17:17:56.122Z,4.35
2022-10-19T17:21:24.351Z,4.32
2022-10-19T17:24:28.018Z,4.30
2022-10-19T17:27:32.142Z,4.17
2022-10-19T17:30:35.834Z,4.08
2022-10-19T17:33:39.943Z,4.11
2022-10-19T17:36:46.429Z,4.09
2022-10-19T17:39:52.146Z,3.97
2022-10-19T17:42:55.971Z,3.87
2022-10-19T17:46:01.448Z,3.92
2022-10-19T17:49:05.832Z,3.87
2022-10-19T17:52:09.433Z,3.91
2022-10-19T17:55:13.592Z,3.97
2022-10-19T17:58:17.758Z,4.04
2022-10-19T18:01:22.716Z,4.13
2022-10-19T18:04:26.551Z,4.10
2022-10-19T18:07:30.388Z,4.16
2022-10-19T18:10:36.836Z,4.13
2022-10-19T18:13:41.195Z,4.13
2022-10-19T18:16:48.058Z,4.21
2022-10-19T18:19:51.153Z,4.20
2022-10-19T18:22:55.012Z,4.22
2022-10-19T18:26:02.919Z,4.31
2022-10-19T18:29:17.550Z,4.36
2022-10-19T18:32:20.516Z,4.32
2022-10-19T18:35:23.911Z,4.34
2022-10-19T18:38:27.142Z,4.34
2022-10-19T18:41:31.658Z,4.41
2022-10-19T18:44:35.336Z,4.46
2022-10-19T18:47:38.697Z,4.57
2022-10-19T18:50:42.283Z,4.43
2022-10-19T18:53:46.399Z,4.33
2022-10-19T18:56:50.063Z,4.33
2022-10-19T18:59:53.324Z,4.25
2022-10-19T19:02:57.525Z,4.15
2022-10-19T19:06:02.177Z,4.12
2022-10-19T19:09:09.831Z,4.10
2022-10-19T19:12:12.843Z,4.11
2022-10-19T19:15:16.785Z,4.11
2022-10-19T19:18:20.367Z,4.07
2022-10-19T19:21:29.562Z,4.04
2022-10-19T19:24:33.418Z,3.96
2022-10-19T19:30:46.210Z,3.77
2022-10-19T19:33:49.944Z,3.84
2022-10-19T19:36:53.639Z,3.93
2022-10-19T19:39:57.137Z,3.94
2022-10-19T19:43:00.831Z,3.95
2022-10-19T19:46:08.993Z,3.96
2022-10-19T19:49:13.281Z,3.98
2022-10-19T19:52:16.262Z,3.97
2022-10-19T19:55:19.369Z,3.95
2022-10-19T19:58:23.059Z,3.98
2022-10-19T20:01:26.683Z,3.79
2022-10-19T20:04:30.429Z,3.70
2022-10-19T20:07:33.910Z,3.75
2022-10-19T20:10:42.331Z,3.67
2022-10-19T20:13:46.703Z,3.64
2022-10-19T20:16:50.615Z,3.58
2022-10-19T20:19:53.872Z,3.45
2022-10-19T20:22:57.930Z,3.45
2022-10-19T20:26:01.679Z,3.32
2022-10-19T20:29:06.217Z,3.31
2022-10-19T20:32:10.312Z,3.33
2022-10-19T20:35:13.375Z,3.36
2022-10-19T20:38:17.080Z,3.36
2022-10-19T20:41:22.741Z,3.33
2022-10-19T20:44:26.323Z,3.22
2022-10-19T20:47:29.975Z,3.20
2022-10-19T20:50:34.229Z,3.19
2022-10-19T20:53:38.020Z,3.19
2022-10-19T20:56:42.576Z,3.21
2022-10-19T20:59:46.278Z,3.30
2022-10-19T21:02:49.697Z,3.28
2022-10-19T21:05:52.698Z,3.20
2022-10-19T21:08:57.454Z,3.11
2022-10-19T21:12:04.306Z,3.14
2022-10-19T21:15:08.253Z,3.13
2022-10-19T21:18:11.956Z,3.14
2022-10-19T21:21:22.577Z,3.15
2022-10-19T21:24:30.029Z,3.13
2022-10-19T21:27:33.514Z,3.18
2022-10-19T21:30:37.529Z,3.19
2022-10-19T21:33:41.873Z,3.09
2022-10-19T21:36:45.587Z,3.00
2022-10-19T21:39:49.543Z,2.82
2022-10-19T21:42:53.245Z,2.79
2022-10-19T21:45:57.500Z,2.64
2022-10-19T21:49:01.248Z,2.58
2022-10-19T21:52:04.747Z,2.56
2022-10-19T21:55:08.143Z,2.56
2022-10-19T21:58:12.136Z,2.48
2022-10-19T22:01:17.802Z,2.44
2022-10-19T22:04:22.321Z,2.38
2022-10-19T22:07:25.970Z,2.31
2022-10-19T22:10:29.765Z,2.33
2022-10-19T22:13:35.383Z,2.32
2022-10-19T22:16:40.925Z,2.32
2022-10-19T22:19:44.521Z,2.26
2022-10-19T22:22:50.272Z,2.23
2022-10-19T22:25:55.840Z,2.06
2022-10-19T22:29:01.624Z,2.02
2022-10-19T22:32:05.475Z,2.09
2022-10-19T22:35:08.664Z,2.18
2022-10-19T22:38:11.979Z,2.23
2022-10-19T22:41:15.205Z,2.28
2022-10-19T22:44:18.873Z,2.25
2022-10-19T22:47:22.955Z,2.24
2022-10-19T22:50:26.712Z,2.28
2022-10-19T22:53:30.778Z,2.24
2022-10-19T22:56:34.533Z,2.28
2022-10-19T22:59:38.980Z,2.31
2022-10-19T23:02:42.597Z,2.36
2022-10-19T23:05:45.911Z,2.43
2022-10-19T23:08:49.892Z,2.48
2022-10-19T23:11:53.901Z,2.51
2022-10-19T23:14:56.742Z,2.56
2022-10-19T23:18:00.273Z,2.59
2022-10-19T23:21:06.398Z,2.69
2022-10-19T23:24:09.654Z,2.78
2022-10-19T23:27:14.563Z,2.79
2022-10-19T23:30:17.733Z,2.80
2022-10-19T23:33:20.715Z,2.89
2022-10-19T23:36:27.453Z,3.03
2022-10-19T23:39:31.219Z,3.03
2022-10-19T23:42:34.602Z,3.09
2022-10-19T23:45:39.394Z,3.15
2022-10-19T23:48:43.695Z,3.30
2022-10-19T23:51:47.409Z,3.36
2022-10-19T23:54:51.143Z,3.38
2022-10-19T23:57:55.147Z,3.30
